Lyons, NY

11:48 EDT le 04 août 2015 (GMT -0400)
Lyons | | Change Station
CLOSE
Current Station
Personal Weather Stations
Location: Lyons, NY
Elevation: 503 ft
Nearby Weather Stations

Elev 503 ft 43.14 °N, 77.00 °W | Updated 3 seconds ago

Couvert
Couvert
73.9 °F
Feels Like 75 °F
N
1.2
Vent Variable Vent from NE
Gusts 1.2 mph

High -- | Low -- °F
--% Risque de précip.
Hier
High -- | Low -- °F
Precip. -- pouce
6:01 AM 8:25 PM
Waning Gibbous, 76% visible
Pression 29.89 pouce
Visibilité 10.0 Miles
Nuages Few 4000 ft
Index de chaleur 75 °F
Point de rosée 65 °F
Humidité 74%
Rainfall 0.00 pouce
Profondeur de la couche neigeuse Not available.
UV 7 out of 12
Pollen 6.80 out of 12
Not available.
Flu Activity Not available.
METAR KPEO 041453Z AUTO VRB06KT 10SM FEW040 24/13 A2990 RMK AO2 SLP120 T02390133 51005

More Conditions Fewer Conditions

Pression 29.89 pouce
Visibilité 10.0 Miles
Nuages Few 4000 ft
Index de chaleur 75 °F
Point de rosée 65 °F
Humidité 74%
Rainfall 0.00 pouce
Profondeur de la couche neigeuse Not available.
UV 7 out of 12
Pollen 6.80 out of 12
Not available.
Flu Activity Not available.
METAR KPEO 041453Z AUTO VRB06KT 10SM FEW040 24/13 A2990 RMK AO2 SLP120 T02390133 51005

More Conditions Fewer Conditions

10-Day Weather Forecast

×

Almanac

Astronomie

Aug. 04, 2015 Rise Set
Temps réel
Crépuscule civil
Crépuscule nautique
Crépuscule astronomique
Lune
Durée de lumière visible
Longueur du jour
Tomorrow will be .
, % of the Moon is Illuminated

State Highs State Lows

Community

WunderPhotos

Upload Photos

1,843,909 photos uploaded!

WunderBlogs® & News

Nearby

Profondeur de la couche de neige

Station Depth Elevation

Earthquake Activity

Ville Distance Mag. Time & Date
Minimum magnitude displayed is 2.5.

Coastal Water Temperatures

Lieu Les températures

Stations

Nearby Weather Stations

Station Location Temp Refroidissement éolien Point de rosée Humidité Vent Precip. Elev Mise à jour Type